Main page
Satellite images 15-day forecastsClimateMarine weather Cyclones Lightning AirportsFAQ Newsletter About
Weather : Europe Africa North America South America Asia Australia-Oceania Others
Languages Contact

Leeds Bradford, England

latitude: 53-52N, longitude: 001-39W, elevation: 208 m


METAR: EGNM 011750Z 29011KT 9999 FEW022 SCT048 14/10 Q1026
TAF: EGNM 011657Z 0118/0218 30008KT 9999 SCT020 PROB30 0203/0209 8000 BECMG 0212/0215 18010KT

Time: 19:16 (18:16 UTC)

Current weather observation

The report was made 26 minutes ago, at 17:50 UTC  
Wind 11 kt from the West/Northwest
Temperature 14°C
Humidity 77%
Pressure 1026 hPa
Visibility 10 km or more
Few clouds at a height of 2200 ft
Scattered clouds at a height of 4800 ft

Change units

Forecast

The report was made 01 hour and 19 minutes ago, at 16:57 UTC  
Forecast valid from 01 at 18 UTC to 02 at 18 UTC
Wind 08 kt from the West/Northwest
Visibility 10 km or more
Scattered clouds at a height of 2000 ft
Probability 30%
from 02 at 03 UTC to 02 at 09 UTC
Visibility 8000 m
Becoming
from 02 at 12 UTC to 02 at 15 UTC
Wind 10 kt from the South
The information on this site is subject to a disclaimer
Weather : Europe Africa North America South America Asia Australia-Oceania Others
Satellite images 15-day forecastsClimateMarine weather Cyclones Lightning AirportsFAQ Languages Contact Newsletter About